Flugplatz Seedorf

Für EDXS sind keine METAR/TAF Berichte vorhanden.
Es werden die Flugwettermeldungen vom Flugplatz Hamburg-Finkenwerder in 44 km Entfernung angezeigt.

Bericht für EDHI

vom 26.09. um 22:50 UTC

Wind 13 kt aus 90°

Sichtweite 10 km oder mehr

bedeckt in 1500 ft

Temperatur 14.0°C

Taupunkt 11.0°C

Luftfeuchtigkeit 82%

Luftdruck 993 hPa

EDHI 262250Z AUTO 09013KT 060V140 9999 // OVC015/// 14/11 Q0993
Keine Prognose (TAF) verfügbar.
Impressum